Time;durP1;ratioP1;P1;durP2;ratioP2;P2;SDS_P1;SDS_P2;PMS_P1;PMS_P2;Temp;Humidity;BMP_temperature;BMP_pressure;BME280_temperature;BME280_humidity;BME280_pressure;Samples;Min_cycle;Max_cycle;Signal;HPM_P1;HPM_P2
2021/05/01 00:02:19;;;;;;;11.30;8.02;;;10.10;81.30;;;;;;4948669;28;20042;-70
2021/05/01 00:04:45;;;;;;;9.57;7.85;;;10.00;81.00;;;;;;4947787;28;20042;-69
2021/05/01 00:07:11;;;;;;;10.68;7.60;;;10.00;81.20;;;;;;4948723;28;20069;-71
2021/05/01 00:09:37;;;;;;;9.98;7.50;;;10.00;81.00;;;;;;4951178;28;20389;-71
2021/05/01 00:12:03;;;;;;;9.80;7.28;;;10.00;81.20;;;;;;4947121;28;20063;-70
2021/05/01 00:14:28;;;;;;;11.63;7.95;;;10.00;81.40;;;;;;4949343;28;20102;-71
2021/05/01 00:16:55;;;;;;;11.95;8.20;;;10.00;81.30;;;;;;4948054;28;20455;-71
2021/05/01 00:19:21;;;;;;;10.07;7.18;;;10.00;81.00;;;;;;4951010;28;20109;-70
2021/05/01 00:21:47;;;;;;;10.13;7.93;;;10.00;81.10;;;;;;4949117;29;20118;-70
2021/05/01 00:24:13;;;;;;;8.30;7.28;;;9.90;81.10;;;;;;4949534;28;20492;-69
2021/05/01 00:26:39;;;;;;;11.00;7.20;;;9.90;81.10;;;;;;4944927;28;20459;-70
2021/05/01 00:29:04;;;;;;;10.88;7.28;;;9.90;81.30;;;;;;4950314;28;20110;-69
2021/05/01 00:31:30;;;;;;;8.98;7.53;;;9.90;81.20;;;;;;4948216;28;20430;-70
2021/05/01 00:33:56;;;;;;;9.90;7.30;;;9.90;81.50;;;;;;4949008;28;20050;-70
2021/05/01 00:36:22;;;;;;;9.77;7.95;;;9.90;81.20;;;;;;4949218;28;20493;-70
2021/05/01 00:38:48;;;;;;;12.85;7.45;;;9.90;81.20;;;;;;4947860;28;20147;-71
2021/05/01 00:41:14;;;;;;;8.95;7.03;;;9.90;81.80;;;;;;4951623;28;20063;-70
2021/05/01 00:43:40;;;;;;;10.73;8.00;;;9.80;81.20;;;;;;4950013;28;20489;-71
2021/05/01 00:46:08;;;;;;;12.43;7.30;;;9.80;81.30;;;;;;4945588;28;20371;-70
2021/05/01 00:48:34;;;;;;;11.25;7.45;;;9.80;81.80;;;;;;4945938;28;20042;-70
2021/05/01 00:51:01;;;;;;;9.60;7.07;;;9.80;81.40;;;;;;4946933;28;20032;-70
2021/05/01 00:53:28;;;;;;;8.70;7.22;;;9.80;81.80;;;;;;4951041;29;20505;-69
2021/05/01 00:55:55;;;;;;;10.15;7.28;;;9.80;81.80;;;;;;4944134;28;20478;-70
2021/05/01 00:58:22;;;;;;;9.75;7.10;;;9.80;81.80;;;;;;4950839;28;20035;-71
2021/05/01 01:03:19;;;;;;;9.10;6.88;;;9.80;82.20;;;;;;4950994;29;20145;-71
2021/05/01 01:05:44;;;;;;;8.90;6.30;;;9.80;82.10;;;;;;4942878;28;20123;-71
2021/05/01 01:08:10;;;;;;;8.82;6.75;;;9.70;81.90;;;;;;4947792;28;20032;-71
2021/05/01 01:10:36;;;;;;;9.15;7.20;;;9.80;82.00;;;;;;4944408;28;20020;-71
2021/05/01 01:13:02;;;;;;;9.77;7.35;;;9.80;82.60;;;;;;4949656;28;20397;-71
2021/05/01 01:15:30;;;;;;;11.98;7.35;;;9.80;81.90;;;;;;4947693;28;20027;-71
2021/05/01 01:17:55;;;;;;;10.32;7.10;;;9.80;81.90;;;;;;4948615;28;20032;-72
2021/05/01 01:20:22;;;;;;;9.65;7.38;;;9.80;82.10;;;;;;4944470;28;20560;-70
2021/05/01 01:22:48;;;;;;;8.38;7.13;;;9.80;82.10;;;;;;4948651;28;20119;-71
2021/05/01 01:25:14;;;;;;;8.13;6.63;;;9.70;81.90;;;;;;4947507;28;20039;-71
2021/05/01 01:27:43;;;;;;;9.95;7.30;;;9.70;82.40;;;;;;4947653;28;20263;-71
2021/05/01 01:30:11;;;;;;;8.52;6.53;;;9.70;82.30;;;;;;4957136;28;20034;-70
2021/05/01 01:32:36;;;;;;;11.27;7.93;;;9.70;82.10;;;;;;4947871;28;20038;-70
2021/05/01 01:35:03;;;;;;;11.13;7.18;;;9.70;82.10;;;;;;4948067;28;20464;-71
2021/05/01 01:37:29;;;;;;;9.35;7.45;;;9.70;82.10;;;;;;4955373;28;20058;-70
2021/05/01 01:39:55;;;;;;;9.70;7.05;;;9.70;82.00;;;;;;4946165;28;20389;-70
2021/05/01 01:42:20;;;;;;;9.70;7.38;;;9.70;81.90;;;;;;4945850;28;20042;-71
2021/05/01 01:44:46;;;;;;;8.98;6.80;;;9.70;81.90;;;;;;4947998;28;20039;-70
2021/05/01 01:47:12;;;;;;;9.05;6.63;;;9.70;82.00;;;;;;4949230;28;20038;-70
2021/05/01 01:49:39;;;;;;;8.60;6.95;;;9.70;82.10;;;;;;4949420;28;20023;-70
2021/05/01 01:52:05;;;;;;;12.20;7.10;;;9.70;82.20;;;;;;4947398;28;20493;-71
2021/05/01 01:54:31;;;;;;;9.18;7.35;;;9.60;82.00;;;;;;4942876;28;20478;-71
2021/05/01 01:56:59;;;;;;;8.95;6.95;;;9.60;82.30;;;;;;4945075;28;20027;-70
2021/05/01 01:59:26;;;;;;;9.63;7.40;;;9.60;81.90;;;;;;4944271;28;20514;-70
2021/05/01 02:01:52;;;;;;;8.55;7.07;;;9.60;82.00;;;;;;4949559;28;20390;-69
2021/05/01 02:04:18;;;;;;;9.02;6.93;;;9.60;81.90;;;;;;4942719;28;20024;-71
2021/05/01 02:06:44;;;;;;;9.63;7.63;;;9.60;81.80;;;;;;4948593;28;20382;-70
2021/05/01 02:09:10;;;;;;;9.75;6.97;;;9.50;81.70;;;;;;4951313;28;20023;-71
2021/05/01 02:11:35;;;;;;;8.93;7.15;;;9.60;81.90;;;;;;4948580;28;20037;-71
2021/05/01 02:14:03;;;;;;;13.32;7.70;;;9.60;82.20;;;;;;4948286;28;20174;-72
2021/05/01 02:16:29;;;;;;;8.13;6.47;;;9.50;81.80;;;;;;4948287;28;20039;-70
2021/05/01 02:18:55;;;;;;;12.27;7.57;;;9.60;81.90;;;;;;4946907;28;20046;-69
2021/05/01 02:21:20;;;;;;;9.30;7.55;;;9.60;81.90;;;;;;4951810;28;20070;-71
2021/05/01 02:23:46;;;;;;;11.77;7.45;;;9.50;82.20;;;;;;4948708;28;20042;-70
2021/05/01 02:26:12;;;;;;;7.80;6.43;;;9.60;82.30;;;;;;4952647;28;20023;-70
2021/05/01 02:28:37;;;;;;;9.48;6.65;;;9.60;82.40;;;;;;4950757;28;20394;-70
2021/05/01 02:31:03;;;;;;;9.25;6.65;;;9.60;82.40;;;;;;4950747;28;20406;-70
2021/05/01 02:33:29;;;;;;;9.57;7.47;;;9.60;82.00;;;;;;4950133;28;20027;-71
2021/05/01 02:35:55;;;;;;;9.00;7.35;;;9.60;82.00;;;;;;4954036;28;20026;-70
2021/05/01 02:38:21;;;;;;;9.43;7.40;;;9.60;81.80;;;;;;4951263;28;20170;-70
2021/05/01 02:40:47;;;;;;;10.85;7.38;;;9.50;81.80;;;;;;4986955;23;20501;-67
2021/05/01 02:43:13;;;;;;;10.57;7.53;;;9.50;81.80;;;;;;4979844;28;20031;-66
2021/05/01 02:45:39;;;;;;;11.18;8.43;;;9.50;81.70;;;;;;4981202;28;20026;-66
2021/05/01 02:48:05;;;;;;;10.50;7.45;;;9.50;81.90;;;;;;4981547;28;20046;-66
2021/05/01 02:50:31;;;;;;;9.00;7.53;;;9.40;81.90;;;;;;4974067;28;20115;-67
2021/05/01 02:52:57;;;;;;;10.20;7.65;;;9.40;82.00;;;;;;4960914;28;20540;-67
2021/05/01 02:55:23;;;;;;;9.98;7.78;;;9.40;82.10;;;;;;4959460;28;20110;-67
2021/05/01 02:57:50;;;;;;;10.35;7.72;;;9.40;82.10;;;;;;4961226;28;20047;-67
2021/05/01 03:00:19;;;;;;;12.00;7.85;;;9.40;82.10;;;;;;4961612;28;20291;-67
2021/05/01 03:02:44;;;;;;;10.00;7.50;;;9.30;82.30;;;;;;4961165;28;20031;-68
2021/05/01 03:05:12;;;;;;;12.60;8.27;;;9.40;82.30;;;;;;4962027;28;20035;-67
2021/05/01 03:07:38;;;;;;;12.60;8.13;;;9.40;82.60;;;;;;4962789;28;20043;-67
2021/05/01 03:10:12;;;;;;;11.30;8.05;;;9.30;82.90;;;;;;4960415;28;20050;-67
2021/05/01 03:12:38;;;;;;;11.38;8.48;;;9.30;82.40;;;;;;4959483;28;20241;-67
2021/05/01 03:15:06;;;;;;;11.48;8.20;;;9.30;82.70;;;;;;4960265;28;20027;-68
2021/05/01 03:17:31;;;;;;;12.25;8.05;;;9.30;82.60;;;;;;4961011;28;20027;-67
2021/05/01 03:19:57;;;;;;;12.13;8.88;;;9.30;82.70;;;;;;4961995;28;20477;-67
2021/05/01 03:22:23;;;;;;;11.40;8.18;;;9.40;82.60;;;;;;4961345;28;20026;-67
2021/05/01 03:24:49;;;;;;;14.70;8.57;;;9.30;82.70;;;;;;4960172;28;20090;-66
2021/05/01 03:27:17;;;;;;;10.30;7.47;;;9.30;82.70;;;;;;4961188;28;20043;-67
2021/05/01 03:29:43;;;;;;;10.68;8.57;;;9.30;83.00;;;;;;4961652;28;20222;-67
2021/05/01 03:32:09;;;;;;;12.05;8.98;;;9.30;82.70;;;;;;4961532;28;20507;-67
2021/05/01 03:34:34;;;;;;;11.85;9.10;;;9.30;82.80;;;;;;4961926;28;20452;-67
2021/05/01 03:37:01;;;;;;;13.52;9.52;;;9.30;82.90;;;;;;4961636;28;20042;-66
2021/05/01 03:39:27;;;;;;;13.30;8.75;;;9.20;83.10;;;;;;4960775;28;20043;-68
2021/05/01 03:41:53;;;;;;;11.30;9.30;;;9.20;83.10;;;;;;4962481;28;20054;-66
2021/05/01 03:44:18;;;;;;;10.95;8.60;;;9.20;83.20;;;;;;4962516;28;20023;-67
2021/05/01 03:46:44;;;;;;;12.30;8.43;;;9.20;83.30;;;;;;4959159;28;20031;-67
2021/05/01 03:49:13;;;;;;;14.57;9.10;;;9.30;83.40;;;;;;4958175;28;20035;-66
2021/05/01 03:51:38;;;;;;;12.27;8.40;;;9.30;83.20;;;;;;4963720;28;20097;-66
2021/05/01 03:54:04;;;;;;;11.57;8.73;;;9.20;83.20;;;;;;4963238;28;20633;-67
2021/05/01 03:56:33;;;;;;;12.65;7.95;;;9.20;83.20;;;;;;4959450;28;20031;-67
2021/05/01 03:58:59;;;;;;;13.82;8.43;;;9.20;83.40;;;;;;4961633;28;20106;-67
2021/05/01 04:01:25;;;;;;;12.98;8.50;;;9.20;84.00;;;;;;4962083;28;20041;-68
2021/05/01 04:03:51;;;;;;;11.95;8.63;;;9.20;83.20;;;;;;4958850;28;20031;-67
2021/05/01 04:06:20;;;;;;;12.32;8.50;;;9.20;83.30;;;;;;4960032;28;20165;-67
2021/05/01 04:08:45;;;;;;;10.98;8.25;;;9.20;83.30;;;;;;4958721;28;20027;-67
2021/05/01 04:11:13;;;;;;;13.98;9.25;;;9.20;83.40;;;;;;4961097;28;20102;-67
2021/05/01 04:13:48;;;;;;;12.25;8.95;;;9.20;83.50;;;;;;4962523;28;20034;-66
2021/05/01 04:16:17;;;;;;;11.85;8.70;;;9.20;83.70;;;;;;4959668;28;20038;-67
2021/05/01 04:18:45;;;;;;;14.00;8.63;;;9.20;83.50;;;;;;4959041;28;20087;-67
2021/05/01 04:21:11;;;;;;;11.77;8.95;;;9.20;83.80;;;;;;4957957;28;20038;-67
2021/05/01 04:23:37;;;;;;;11.60;8.05;;;9.20;83.80;;;;;;4960218;28;20115;-67
2021/05/01 04:26:03;;;;;;;13.55;8.63;;;9.20;84.00;;;;;;4960072;28;20035;-67
2021/05/01 04:28:29;;;;;;;13.88;9.95;;;9.20;83.70;;;;;;4959599;28;20023;-68
2021/05/01 04:30:56;;;;;;;12.85;8.77;;;9.10;83.50;;;;;;4961550;28;20041;-67
2021/05/01 04:33:22;;;;;;;15.23;10.05;;;9.10;83.60;;;;;;4957721;28;20031;-67
2021/05/01 04:35:48;;;;;;;13.85;9.45;;;9.10;84.20;;;;;;4960174;28;20082;-67
2021/05/01 04:38:15;;;;;;;11.43;8.35;;;9.10;83.80;;;;;;4959382;28;20039;-67
2021/05/01 04:40:41;;;;;;;14.43;8.93;;;9.10;84.10;;;;;;4959450;28;20028;-67
2021/05/01 04:43:11;;;;;;;15.45;9.52;;;9.10;83.90;;;;;;4959847;28;20391;-66
2021/05/01 04:45:38;;;;;;;14.07;9.48;;;9.00;84.00;;;;;;4960945;28;20081;-67
2021/05/01 04:48:05;;;;;;;12.05;8.65;;;9.10;84.10;;;;;;4956476;28;20492;-66
2021/05/01 04:50:31;;;;;;;13.95;8.48;;;9.10;83.90;;;;;;4959359;28;20087;-67
2021/05/01 04:52:57;;;;;;;12.43;9.60;;;9.10;83.90;;;;;;4960464;28;20110;-67
2021/05/01 04:55:25;;;;;;;13.35;8.25;;;9.10;83.90;;;;;;4958684;28;20346;-66
2021/05/01 04:57:52;;;;;;;12.95;7.82;;;9.00;83.80;;;;;;4959192;28;20552;-66
2021/05/01 05:00:19;;;;;;;13.52;8.95;;;9.00;84.00;;;;;;4960226;28;20122;-70
2021/05/01 05:02:46;;;;;;;13.00;9.25;;;9.00;83.90;;;;;;4956828;28;20042;-68
2021/05/01 05:05:13;;;;;;;14.60;9.48;;;9.00;83.50;;;;;;4960250;28;20047;-67
2021/05/01 05:07:38;;;;;;;12.80;8.50;;;9.00;83.60;;;;;;4957368;28;20489;-67
2021/05/01 05:10:06;;;;;;;15.82;9.82;;;9.00;83.70;;;;;;4956993;28;20031;-65
2021/05/01 05:12:32;;;;;;;12.88;9.38;;;9.00;83.70;;;;;;4957698;28;20507;-66
2021/05/01 05:14:57;;;;;;;13.25;8.73;;;9.00;83.70;;;;;;4957142;28;20073;-65
2021/05/01 05:17:23;;;;;;;12.27;8.90;;;9.00;83.60;;;;;;4959169;28;20089;-67
2021/05/01 05:19:49;;;;;;;13.85;8.85;;;9.00;83.30;;;;;;4957211;28;20086;-67
2021/05/01 05:22:14;;;;;;;15.43;8.82;;;9.00;83.10;;;;;;4960333;28;20039;-67
2021/05/01 05:24:40;;;;;;;13.95;8.82;;;8.90;83.20;;;;;;4960065;28;20058;-67
2021/05/01 05:27:06;;;;;;;14.57;8.63;;;8.90;83.20;;;;;;4972754;28;20031;-69
2021/05/01 05:29:36;;;;;;;10.63;8.25;;;8.90;82.90;;;;;;4958348;28;20146;-68
2021/05/01 05:32:04;;;;;;;12.02;7.60;;;8.80;82.90;;;;;;4957122;28;20362;-67
2021/05/01 05:34:31;;;;;;;12.40;7.97;;;8.80;82.90;;;;;;4958337;28;20485;-67
2021/05/01 05:36:57;;;;;;;12.20;8.68;;;8.80;83.10;;;;;;4954616;28;20071;-67
2021/05/01 05:39:23;;;;;;;14.02;8.43;;;8.90;83.00;;;;;;4958156;28;20038;-68
2021/05/01 05:41:49;;;;;;;11.68;8.13;;;8.80;82.70;;;;;;4958728;28;20047;-67
2021/05/01 05:44:14;;;;;;;11.25;7.93;;;8.80;83.00;;;;;;4957542;28;20184;-68
2021/05/01 05:46:40;;;;;;;13.13;7.82;;;8.90;83.20;;;;;;4957855;28;20049;-67
2021/05/01 05:49:08;;;;;;;10.20;6.97;;;8.90;83.10;;;;;;4961127;28;20067;-69
2021/05/01 05:51:35;;;;;;;14.45;7.82;;;8.90;82.90;;;;;;4961972;28;20023;-67
2021/05/01 05:54:01;;;;;;;12.07;7.95;;;9.00;82.70;;;;;;4961590;28;20442;-67
2021/05/01 05:56:27;;;;;;;11.57;7.63;;;9.00;82.10;;;;;;4960385;28;20394;-67
2021/05/01 05:58:53;;;;;;;12.45;7.38;;;9.00;82.60;;;;;;4962075;28;20039;-68
2021/05/01 06:01:21;;;;;;;10.77;7.20;;;9.00;82.40;;;;;;4959927;28;20031;-68
2021/05/01 06:03:49;;;;;;;10.20;7.38;;;9.00;81.30;;;;;;4957460;28;20073;-68
2021/05/01 06:06:26;;;;;;;11.35;7.53;;;9.00;81.70;;;;;;4958253;28;20031;-68
2021/05/01 06:08:54;;;;;;;11.98;8.05;;;9.00;81.50;;;;;;4960846;28;20039;-68
2021/05/01 06:11:20;;;;;;;12.50;8.07;;;8.90;81.10;;;;;;4962273;28;20031;-68
2021/05/01 06:13:47;;;;;;;11.35;7.53;;;9.00;81.30;;;;;;4961495;28;20297;-67
2021/05/01 06:16:13;;;;;;;12.55;7.65;;;8.90;81.00;;;;;;4960931;28;20113;-68
2021/05/01 06:18:42;;;;;;;11.02;7.88;;;9.00;81.30;;;;;;4959929;28;20110;-66
2021/05/01 06:21:14;;;;;;;10.10;7.38;;;9.00;80.70;;;;;;4962943;28;20043;-68
2021/05/01 06:23:44;;;;;;;12.68;7.47;;;9.00;80.90;;;;;;4959349;28;20059;-68
2021/05/01 06:26:10;;;;;;;10.70;7.57;;;9.00;80.80;;;;;;4958429;28;20042;-68
2021/05/01 06:28:36;;;;;;;8.75;5.97;;;9.00;81.20;;;;;;4961662;28;20031;-67
2021/05/01 06:31:06;;;;;;;10.15;6.53;;;9.00;81.50;;;;;;4961060;28;20035;-68
2021/05/01 06:33:35;;;;;;;12.57;7.57;;;9.10;81.60;;;;;;4960099;28;20031;-68
2021/05/01 06:36:03;;;;;;;9.00;7.13;;;9.10;81.70;;;;;;4958605;28;20030;-67
2021/05/01 06:38:29;;;;;;;12.43;7.20;;;9.10;81.70;;;;;;4961842;28;20031;-68
2021/05/01 06:41:00;;;;;;;9.68;6.75;;;9.20;81.40;;;;;;4960676;28;20042;-67
2021/05/01 06:43:44;;;;;;;13.15;7.70;;;9.20;81.40;;;;;;4962124;28;20030;-67
2021/05/01 06:46:14;;;;;;;10.55;7.10;;;9.30;81.00;;;;;;4961014;28;20039;-69
2021/05/01 06:48:40;;;;;;;11.55;7.57;;;9.30;81.00;;;;;;4960400;28;20023;-68
2021/05/01 06:51:06;;;;;;;10.73;6.57;;;9.30;79.90;;;;;;4964270;28;20035;-68
2021/05/01 06:53:34;;;;;;;10.40;6.90;;;9.30;80.50;;;;;;4957894;28;20029;-68
2021/05/01 06:56:04;;;;;;;11.68;6.93;;;9.40;81.10;;;;;;4963406;28;20081;-67
2021/05/01 06:58:31;;;;;;;12.75;7.22;;;9.40;80.30;;;;;;4961278;28;20477;-67
2021/05/01 07:01:06;;;;;;;10.43;7.13;;;9.40;80.40;;;;;;4957595;28;20034;-69
2021/05/01 07:03:38;;;;;;;10.35;7.13;;;9.50;80.00;;;;;;4957115;28;20528;-68
2021/05/01 07:06:05;;;;;;;8.82;6.95;;;9.50;80.10;;;;;;4962459;28;20717;-67
2021/05/01 07:08:31;;;;;;;9.27;6.38;;;9.50;79.90;;;;;;4959356;28;20034;-67
2021/05/01 07:10:57;;;;;;;9.45;6.63;;;9.50;80.10;;;;;;4957826;28;20041;-70
2021/05/01 07:13:24;;;;;;;11.43;7.32;;;9.60;80.20;;;;;;4960836;28;20027;-67
2021/05/01 07:15:52;;;;;;;10.85;7.22;;;9.60;80.10;;;;;;4958132;28;20086;-68
2021/05/01 07:18:22;;;;;;;9.88;7.03;;;9.70;80.20;;;;;;4959072;28;20035;-68
2021/05/01 07:20:48;;;;;;;9.25;6.63;;;9.70;79.30;;;;;;4962816;28;20039;-67
2021/05/01 07:23:14;;;;;;;8.73;6.82;;;9.70;79.60;;;;;;4959832;28;20119;-68
2021/05/01 07:25:40;;;;;;;9.70;7.05;;;9.70;79.90;;;;;;4957902;28;20113;-67
2021/05/01 07:28:12;;;;;;;9.25;7.60;;;9.80;79.50;;;;;;4962204;28;20039;-67
2021/05/01 07:30:41;;;;;;;10.18;6.88;;;9.80;79.60;;;;;;4955288;28;20061;-66
2021/05/01 07:33:16;;;;;;;10.45;6.90;;;9.90;79.40;;;;;;4954442;28;20038;-66
2021/05/01 07:35:46;;;;;;;9.77;6.80;;;9.90;79.10;;;;;;4958476;28;20043;-68
2021/05/01 07:38:12;;;;;;;10.65;7.32;;;9.90;79.40;;;;;;4957808;28;20067;-65
2021/05/01 07:40:41;;;;;;;12.15;7.18;;;10.00;78.70;;;;;;4960384;28;20035;-70
2021/05/01 07:43:08;;;;;;;12.35;7.50;;;10.00;79.10;;;;;;4957892;28;20043;-67
2021/05/01 07:45:36;;;;;;;10.38;7.05;;;10.00;78.50;;;;;;4957714;28;20066;-67
2021/05/01 07:48:03;;;;;;;11.80;7.32;;;10.10;78.80;;;;;;4957667;28;20389;-68
2021/05/01 07:50:30;;;;;;;11.32;7.28;;;10.10;78.50;;;;;;4968065;28;20030;-68
2021/05/01 07:52:59;;;;;;;8.93;6.70;;;10.10;78.60;;;;;;4956980;28;20035;-67
2021/05/01 07:55:24;;;;;;;10.65;6.80;;;10.10;79.10;;;;;;4960239;28;20050;-67
2021/05/01 07:57:50;;;;;;;9.90;6.82;;;10.10;79.10;;;;;;4959778;28;20086;-68
2021/05/01 08:00:18;;;;;;;11.07;7.18;;;10.20;78.50;;;;;;4960043;28;20410;-68
2021/05/01 08:02:44;;;;;;;9.07;6.47;;;10.30;79.10;;;;;;4958441;28;20027;-68
2021/05/01 08:05:12;;;;;;;9.45;6.72;;;10.30;79.10;;;;;;4960530;28;20089;-69
2021/05/01 08:07:38;;;;;;;9.45;6.40;;;10.40;78.10;;;;;;4959503;28;20062;-68
2021/05/01 08:10:05;;;;;;;10.75;7.03;;;10.40;78.20;;;;;;4956334;28;20031;-67
2021/05/01 08:12:33;;;;;;;11.70;6.60;;;10.40;78.50;;;;;;4960678;28;20022;-67
2021/05/01 08:14:59;;;;;;;12.02;7.07;;;10.40;78.20;;;;;;4959787;28;20027;-68
2021/05/01 08:17:25;;;;;;;11.68;6.80;;;10.40;78.40;;;;;;4959802;28;20098;-68
2021/05/01 08:19:54;;;;;;;13.38;7.10;;;10.40;78.00;;;;;;4960856;28;20034;-67
2021/05/01 08:22:20;;;;;;;11.23;6.97;;;10.50;77.20;;;;;;4964642;28;20122;-68
2021/05/01 08:24:46;;;;;;;13.48;8.23;;;10.40;77.00;;;;;;4962427;28;20043;-67
2021/05/01 08:27:12;;;;;;;10.43;7.07;;;10.40;77.40;;;;;;4958866;28;20030;-68
2021/05/01 08:29:37;;;;;;;13.95;7.22;;;10.40;77.50;;;;;;4959681;28;20031;-67
2021/05/01 08:32:03;;;;;;;10.18;7.07;;;10.50;77.60;;;;;;4960923;28;20370;-66
2021/05/01 08:34:29;;;;;;;13.20;7.93;;;10.50;78.00;;;;;;4956386;28;20601;-67
2021/05/01 08:36:55;;;;;;;12.50;7.72;;;10.50;77.40;;;;;;4959247;28;20058;-67
2021/05/01 08:39:21;;;;;;;9.73;6.88;;;10.50;77.00;;;;;;4960376;28;20089;-67
2021/05/01 08:41:47;;;;;;;11.70;8.38;;;10.50;77.20;;;;;;4957566;28;20421;-67
2021/05/01 08:44:12;;;;;;;13.00;7.57;;;10.60;76.70;;;;;;4960292;28;20053;-71
2021/05/01 08:46:39;;;;;;;10.13;6.85;;;10.60;77.20;;;;;;4959626;28;20436;-68
2021/05/01 08:49:09;;;;;;;8.30;6.75;;;10.60;77.10;;;;;;4961486;28;20485;-68
2021/05/01 08:51:37;;;;;;;9.43;7.43;;;10.70;77.40;;;;;;4973947;28;20032;-68
2021/05/01 08:54:03;;;;;;;10.68;7.45;;;10.90;76.80;;;;;;4960673;28;20023;-68
2021/05/01 08:56:29;;;;;;;12.05;7.38;;;11.00;75.90;;;;;;4959200;28;20034;-68
2021/05/01 08:59:00;;;;;;;10.57;7.60;;;11.00;74.30;;;;;;4960103;28;20035;-68
2021/05/01 09:01:27;;;;;;;12.30;8.00;;;11.10;74.60;;;;;;4958344;28;20105;-69
2021/05/01 09:03:56;;;;;;;10.95;7.53;;;11.20;75.40;;;;;;4960351;28;20027;-69
2021/05/01 09:06:23;;;;;;;14.48;7.38;;;11.30;74.20;;;;;;4957089;28;20031;-68
2021/05/01 09:09:07;;;;;;;8.98;6.93;;;11.40;74.30;;;;;;4959616;28;20031;-68
2021/05/01 09:11:43;;;;;;;8.25;6.53;;;11.50;74.50;;;;;;4958365;28;20501;-69
2021/05/01 09:14:20;;;;;;;9.02;6.97;;;11.60;74.20;;;;;;4958890;28;20027;-66
2021/05/01 09:17:02;;;;;;;10.65;7.03;;;11.60;74.10;;;;;;4955430;28;20089;-66
2021/05/01 09:19:29;;;;;;;9.10;6.93;;;11.70;72.70;;;;;;4960078;28;20027;-66
2021/05/01 09:22:12;;;;;;;11.38;7.47;;;11.60;72.80;;;;;;4959535;28;20043;-66
2021/05/01 09:24:40;;;;;;;10.77;7.03;;;11.60;72.60;;;;;;4964682;28;20039;-66
2021/05/01 09:27:06;;;;;;;10.98;6.50;;;11.60;72.80;;;;;;4962070;28;20031;-66
2021/05/01 09:29:35;;;;;;;9.02;6.30;;;11.60;72.60;;;;;;4963007;28;20118;-65
2021/05/01 09:32:04;;;;;;;8.95;6.00;;;11.70;72.60;;;;;;4962564;28;20035;-65
2021/05/01 09:34:49;;;;;;;10.10;7.45;;;11.70;73.80;;;;;;4960264;28;20058;-68
2021/05/01 09:37:18;;;;;;;9.27;6.70;;;11.70;73.20;;;;;;4962370;28;20259;-65
2021/05/01 09:39:55;;;;;;;11.48;7.57;;;11.80;73.60;;;;;;4962615;28;20023;-65
2021/05/01 09:42:23;;;;;;;8.18;6.15;;;11.70;73.30;;;;;;4960392;28;20035;-66
2021/05/01 09:45:10;;;;;;;8.20;6.03;;;11.80;73.70;;;;;;4962394;28;20073;-66
2021/05/01 09:47:36;;;;;;;7.68;5.60;;;12.00;73.50;;;;;;4961503;28;20415;-66
2021/05/01 09:50:22;;;;;;;8.27;5.80;;;12.00;73.10;;;;;;4961939;28;20039;-65
2021/05/01 09:53:17;;;;;;;8.55;6.25;;;12.10;73.30;;;;;;4963784;28;20027;-64
2021/05/01 09:55:54;;;;;;;11.25;7.47;;;12.20;72.00;;;;;;4961455;28;20044;-65
2021/05/01 09:58:26;;;;;;;9.38;6.63;;;12.20;71.40;;;;;;4960984;28;20519;-67
2021/05/01 10:01:11;;;;;;;7.68;6.22;;;12.40;71.60;;;;;;4961976;28;20039;-68
2021/05/01 10:03:37;;;;;;;9.90;6.95;;;12.40;71.60;;;;;;4956640;28;20066;-68
2021/05/01 10:06:06;;;;;;;12.60;6.95;;;12.50;70.90;;;;;;4961536;28;20078;-67
2021/05/01 10:08:32;;;;;;;6.78;5.55;;;12.50;71.40;;;;;;4959295;28;20093;-67
2021/05/01 10:11:13;;;;;;;6.57;5.10;;;12.50;71.80;;;;;;4962320;28;20581;-68
2021/05/01 10:13:54;;;;;;;11.02;6.72;;;12.70;72.30;;;;;;4962091;28;20380;-68
2021/05/01 10:16:21;;;;;;;10.00;6.68;;;12.70;70.60;;;;;;4961968;28;20105;-68
2021/05/01 10:19:08;;;;;;;7.88;6.38;;;12.80;69.80;;;;;;4962237;28;20100;-65
2021/05/01 10:21:35;;;;;;;8.63;6.55;;;13.00;70.60;;;;;;4959443;28;20110;-64
2021/05/01 10:24:05;;;;;;;11.63;7.72;;;13.00;69.10;;;;;;4961550;28;20528;-68
2021/05/01 10:26:42;;;;;;;10.68;7.53;;;13.10;69.50;;;;;;4961381;28;20022;-64
2021/05/01 10:29:09;;;;;;;10.13;7.07;;;13.20;68.40;;;;;;4964059;28;20087;-64
2021/05/01 10:31:45;;;;;;;9.20;7.18;;;13.20;69.00;;;;;;4961683;28;20118;-69
2021/05/01 10:34:12;;;;;;;8.63;6.72;;;13.20;68.60;;;;;;4961155;28;20036;-69
2021/05/01 10:36:42;;;;;;;7.82;6.32;;;13.20;69.50;;;;;;4960951;28;20543;-66
2021/05/01 10:39:10;;;;;;;9.07;7.03;;;13.10;69.60;;;;;;4957140;28;20061;-68
2021/05/01 10:41:36;;;;;;;9.20;7.10;;;13.10;68.70;;;;;;4960676;28;20101;-66
2021/05/01 10:44:05;;;;;;;9.68;6.97;;;13.20;68.00;;;;;;4960670;28;20031;-66
2021/05/01 10:46:38;;;;;;;8.38;6.93;;;13.20;68.50;;;;;;4959194;28;20042;-69
2021/05/01 10:49:06;;;;;;;8.60;6.22;;;13.20;69.50;;;;;;4964300;28;20023;-69
2021/05/01 10:51:41;;;;;;;8.77;6.25;;;13.20;70.00;;;;;;4961261;28;20031;-65
2021/05/01 10:54:08;;;;;;;9.55;6.70;;;13.30;69.80;;;;;;4961510;28;20031;-65
2021/05/01 10:56:34;;;;;;;9.50;6.75;;;13.40;68.80;;;;;;4958383;28;20038;-65
2021/05/01 10:59:11;;;;;;;10.13;6.75;;;13.50;68.20;;;;;;4960197;28;20019;-65
2021/05/01 11:01:46;;;;;;;8.00;6.90;;;13.60;68.50;;;;;;4960199;28;20031;-65
2021/05/01 11:04:16;;;;;;;9.20;6.70;;;13.70;66.50;;;;;;4962506;28;20031;-66
2021/05/01 11:06:50;;;;;;;7.65;5.90;;;13.80;64.90;;;;;;4976756;28;20038;-69
2021/05/01 11:09:41;;;;;;;6.10;5.32;;;13.90;66.50;;;;;;4958328;28;20062;-69
2021/05/01 11:12:11;;;;;;;7.43;6.45;;;14.00;66.90;;;;;;4960205;28;20404;-69
2021/05/01 11:14:48;;;;;;;6.70;5.82;;;14.10;64.40;;;;;;4957372;28;20457;-70
2021/05/01 11:17:30;;;;;;;7.07;5.80;;;14.10;65.50;;;;;;4955625;28;20031;-68
2021/05/01 11:20:09;;;;;;;7.40;5.68;;;14.10;66.10;;;;;;4960450;28;20039;-69
2021/05/01 11:22:37;;;;;;;7.50;5.22;;;14.10;65.60;;;;;;4960654;28;20031;-69
2021/05/01 11:25:06;;;;;;;8.20;5.68;;;14.00;65.80;;;;;;4958825;28;20089;-69
2021/05/01 11:27:31;;;;;;;8.40;6.57;;;13.90;66.50;;;;;;4956891;28;20030;-70
2021/05/01 11:29:57;;;;;;;8.13;6.28;;;14.00;67.00;;;;;;4955957;28;20078;-69
2021/05/01 11:32:23;;;;;;;9.10;6.43;;;14.30;66.20;;;;;;4958997;28;20397;-70
2021/05/01 11:35:07;;;;;;;6.15;5.43;;;14.70;64.50;;;;;;4959388;28;20516;-69
2021/05/01 11:37:41;;;;;;;7.75;6.15;;;14.90;63.50;;;;;;4956891;28;20027;-69
2021/05/01 11:40:09;;;;;;;6.85;5.57;;;15.00;62.60;;;;;;4950072;28;20042;-67
2021/05/01 11:42:37;;;;;;;7.88;5.57;;;15.00;61.80;;;;;;4958717;28;20031;-66
2021/05/01 11:45:38;;;;;;;9.90;7.18;;;15.00;61.80;;;;;;4960865;28;20481;-68
2021/05/01 11:48:11;;;;;;;6.85;5.10;;;14.80;62.00;;;;;;4959992;28;20075;-67
2021/05/01 11:50:39;;;;;;;7.45;5.38;;;14.50;62.90;;;;;;4961564;28;20541;-67
2021/05/01 11:53:16;;;;;;;6.22;4.93;;;14.40;64.10;;;;;;4954098;28;20106;-68
2021/05/01 11:55:48;;;;;;;10.45;6.20;;;14.40;64.90;;;;;;4960120;28;20091;-69
2021/05/01 11:58:31;;;;;;;8.10;5.93;;;14.50;64.50;;;;;;4953665;28;20066;-66
2021/05/01 12:01:19;;;;;;;7.05;5.03;;;14.50;64.00;;;;;;4957832;28;20524;-66
2021/05/01 12:04:02;;;;;;;6.88;5.82;;;14.40;64.10;;;;;;4963153;28;20059;-67
2021/05/01 12:06:35;;;;;;;5.60;4.78;;;14.30;64.00;;;;;;4961078;28;20420;-67
2021/05/01 12:09:05;;;;;;;6.65;5.85;;;14.10;64.80;;;;;;4961137;28;20395;-67
2021/05/01 12:11:33;;;;;;;9.38;6.63;;;14.10;63.60;;;;;;4957209;28;20489;-67
2021/05/01 12:13:59;;;;;;;6.88;5.93;;;14.10;62.10;;;;;;4958274;28;20395;-66
2021/05/01 12:16:26;;;;;;;8.32;6.53;;;14.00;63.00;;;;;;4958578;28;20493;-68
2021/05/01 12:18:53;;;;;;;8.13;7.20;;;14.00;63.00;;;;;;4960694;28;20168;-66
2021/05/01 12:21:20;;;;;;;9.02;6.30;;;13.90;61.80;;;;;;4959959;28;20531;-67
2021/05/01 12:23:52;;;;;;;10.35;7.95;;;13.90;63.00;;;;;;4976120;28;20031;-67
2021/05/01 12:26:36;;;;;;;9.40;7.25;;;13.80;64.00;;;;;;4959403;28;20033;-66
2021/05/01 12:29:39;;;;;;;11.32;8.20;;;13.70;64.60;;;;;;4960102;28;20043;-67
2021/05/01 12:32:06;;;;;;;10.07;8.18;;;13.60;65.00;;;;;;4914970;28;21245;-66
2021/05/01 12:34:50;;;;;;;8.73;7.22;;;13.50;65.00;;;;;;4956404;28;20066;-68
2021/05/01 12:37:17;;;;;;;8.00;6.88;;;13.30;64.80;;;;;;4955374;28;20078;-66
2021/05/01 12:39:43;;;;;;;8.43;7.53;;;13.30;66.00;;;;;;4957936;28;20298;-67
2021/05/01 12:42:26;;;;;;;11.57;8.85;;;13.20;65.40;;;;;;4956357;28;20031;-67
2021/05/01 12:44:52;;;;;;;9.45;8.18;;;13.10;66.10;;;;;;4960834;28;20039;-66
2021/05/01 12:47:43;;;;;;;10.88;9.38;;;12.80;69.40;;;;;;4959105;28;20034;-67
2021/05/01 12:50:12;;;;;;;9.80;8.48;;;12.70;71.20;;;;;;4961274;28;20035;-67
2021/05/01 12:52:39;;;;;;;13.52;9.50;;;12.60;72.50;;;;;;4958532;28;20117;-68
2021/05/01 12:55:05;;;;;;;12.55;9.63;;;12.50;76.60;;;;;;4957862;28;20026;-67
2021/05/01 12:57:33;;;;;;;11.95;9.70;;;12.30;78.20;;;;;;4956492;28;20568;-67